sensor_id;sensor_type;location;lat;lon;timestamp;pressure;altitude;pressure_sealevel;temperature;humidity
30216;BME280;17028;47.642;8.070;2022-09-30T00:04:18;92719.22;;;9.61;77.73
30216;BME280;17028;47.642;8.070;2022-09-30T00:09:20;92717.06;;;9.56;77.76
30216;BME280;17028;47.642;8.070;2022-09-30T00:14:22;92727.22;;;9.44;77.89
30216;BME280;17028;47.642;8.070;2022-09-30T00:19:23;92736.38;;;9.35;77.99
30216;BME280;17028;47.642;8.070;2022-09-30T00:24:24;92742.09;;;9.32;78.13
30216;BME280;17028;47.642;8.070;2022-09-30T00:29:25;92739.22;;;9.26;78.47
30216;BME280;17028;47.642;8.070;2022-09-30T00:34:26;92742.16;;;9.23;78.71
30216;BME280;17028;47.642;8.070;2022-09-30T00:39:28;92745.00;;;9.13;79.20
30216;BME280;17028;47.642;8.070;2022-09-30T00:49:45;92755.88;;;9.02;79.82
30216;BME280;17028;47.642;8.070;2022-09-30T00:54:46;92760.06;;;8.97;80.26
30216;BME280;17028;47.642;8.070;2022-09-30T00:59:49;92764.75;;;8.91;80.60
30216;BME280;17028;47.642;8.070;2022-09-30T01:04:51;92757.03;;;8.86;81.09
30216;BME280;17028;47.642;8.070;2022-09-30T01:09:56;92758.91;;;8.80;81.64
30216;BME280;17028;47.642;8.070;2022-09-30T01:14:58;92755.66;;;8.81;81.82
30216;BME280;17028;47.642;8.070;2022-09-30T01:25:51;92762.75;;;8.82;82.13
30216;BME280;17028;47.642;8.070;2022-09-30T01:31:09;92765.25;;;8.80;82.44
30216;BME280;17028;47.642;8.070;2022-09-30T01:41:58;92758.00;;;8.83;82.58
30216;BME280;17028;47.642;8.070;2022-09-30T01:47:09;92764.31;;;8.83;82.86
30216;BME280;17028;47.642;8.070;2022-09-30T01:57:58;92769.09;;;8.83;82.64
30216;BME280;17028;47.642;8.070;2022-09-30T02:03:04;92762.59;;;8.86;82.73
30216;BME280;17028;47.642;8.070;2022-09-30T02:08:16;92770.31;;;8.91;82.54
30216;BME280;17028;47.642;8.070;2022-09-30T02:13:24;92767.66;;;8.97;82.51
30216;BME280;17028;47.642;8.070;2022-09-30T02:24:04;92780.38;;;9.13;82.05
30216;BME280;17028;47.642;8.070;2022-09-30T02:29:18;92785.03;;;9.07;82.50
30216;BME280;17028;47.642;8.070;2022-09-30T02:34:30;92784.72;;;9.14;82.57
30216;BME280;17028;47.642;8.070;2022-09-30T02:39:42;92789.88;;;9.30;82.38
30216;BME280;17028;47.642;8.070;2022-09-30T02:44:51;92788.09;;;9.42;82.13
30216;BME280;17028;47.642;8.070;2022-09-30T02:50:04;92779.88;;;9.48;81.84
30216;BME280;17028;47.642;8.070;2022-09-30T02:55:17;92786.50;;;9.50;81.40
30216;BME280;17028;47.642;8.070;2022-09-30T03:00:19;92796.13;;;9.49;81.24
30216;BME280;17028;47.642;8.070;2022-09-30T03:05:20;92802.03;;;9.42;80.97
30216;BME280;17028;47.642;8.070;2022-09-30T03:10:21;92799.13;;;9.36;80.94
30216;BME280;17028;47.642;8.070;2022-09-30T03:25:56;92799.00;;;9.31;80.94
30216;BME280;17028;47.642;8.070;2022-09-30T03:36:38;92814.16;;;9.30;81.02
30216;BME280;17028;47.642;8.070;2022-09-30T03:41:46;92816.78;;;9.33;81.11
30216;BME280;17028;47.642;8.070;2022-09-30T03:46:55;92822.31;;;9.33;81.03
30216;BME280;17028;47.642;8.070;2022-09-30T03:51:58;92816.41;;;9.41;81.19
30216;BME280;17028;47.642;8.070;2022-09-30T03:56:59;92826.25;;;9.51;81.11
30216;BME280;17028;47.642;8.070;2022-09-30T04:02:03;92827.25;;;9.63;80.99
30216;BME280;17028;47.642;8.070;2022-09-30T04:07:05;92826.13;;;9.69;80.68
30216;BME280;17028;47.642;8.070;2022-09-30T04:12:07;92834.19;;;9.67;80.30
30216;BME280;17028;47.642;8.070;2022-09-30T04:17:08;92839.16;;;9.63;79.99
30216;BME280;17028;47.642;8.070;2022-09-30T04:22:10;92842.00;;;9.54;80.03
30216;BME280;17028;47.642;8.070;2022-09-30T04:27:11;92851.34;;;9.42;80.21
30216;BME280;17028;47.642;8.070;2022-09-30T04:32:12;92853.22;;;9.35;80.46
30216;BME280;17028;47.642;8.070;2022-09-30T04:37:13;92850.31;;;9.30;80.60
30216;BME280;17028;47.642;8.070;2022-09-30T04:42:15;92847.41;;;9.24;80.74
30216;BME280;17028;47.642;8.070;2022-09-30T04:47:18;92848.16;;;9.25;80.68
30216;BME280;17028;47.642;8.070;2022-09-30T04:52:19;92853.25;;;9.26;80.75
30216;BME280;17028;47.642;8.070;2022-09-30T04:57:20;92853.09;;;9.30;80.39
30216;BME280;17028;47.642;8.070;2022-09-30T05:02:21;92863.28;;;9.33;80.42
30216;BME280;17028;47.642;8.070;2022-09-30T05:07:22;92852.13;;;9.33;80.39
30216;BME280;17028;47.642;8.070;2022-09-30T05:12:23;92862.03;;;9.34;80.15
30216;BME280;17028;47.642;8.070;2022-09-30T05:17:28;92864.66;;;9.38;80.00
30216;BME280;17028;47.642;8.070;2022-09-30T05:22:29;92877.44;;;9.44;80.07
30216;BME280;17028;47.642;8.070;2022-09-30T05:27:30;92880.19;;;9.53;79.79
30216;BME280;17028;47.642;8.070;2022-09-30T05:32:31;92887.22;;;9.64;79.66
30216;BME280;17028;47.642;8.070;2022-09-30T05:37:33;92891.56;;;9.65;79.41
30216;BME280;17028;47.642;8.070;2022-09-30T05:42:34;92898.50;;;9.69;79.24
30216;BME280;17028;47.642;8.070;2022-09-30T05:47:35;92906.22;;;9.75;79.30
30216;BME280;17028;47.642;8.070;2022-09-30T05:52:36;92918.75;;;9.70;79.38
30216;BME280;17028;47.642;8.070;2022-09-30T05:57:37;92914.25;;;9.73;79.51
30216;BME280;17028;47.642;8.070;2022-09-30T06:02:39;92917.63;;;9.77;79.39
30216;BME280;17028;47.642;8.070;2022-09-30T06:07:41;92939.78;;;9.71;79.54
30216;BME280;17028;47.642;8.070;2022-09-30T06:12:42;92947.25;;;9.56;80.16
30216;BME280;17028;47.642;8.070;2022-09-30T06:17:43;92946.56;;;9.36;81.19
30216;BME280;17028;47.642;8.070;2022-09-30T06:22:44;92943.31;;;9.38;81.33
30216;BME280;17028;47.642;8.070;2022-09-30T06:27:45;92952.84;;;9.46;81.20
30216;BME280;17028;47.642;8.070;2022-09-30T06:32:46;92952.06;;;9.55;80.63
30216;BME280;17028;47.642;8.070;2022-09-30T06:37:50;92955.56;;;9.65;80.72
30216;BME280;17028;47.642;8.070;2022-09-30T06:42:57;92958.03;;;9.72;80.50
30216;BME280;17028;47.642;8.070;2022-09-30T06:48:00;92984.91;;;9.75;80.37
30216;BME280;17028;47.642;8.070;2022-09-30T06:53:04;92973.16;;;9.80;80.26
30216;BME280;17028;47.642;8.070;2022-09-30T06:58:13;92974.34;;;9.89;80.41
30216;BME280;17028;47.642;8.070;2022-09-30T07:03:24;92975.25;;;9.95;80.21
30216;BME280;17028;47.642;8.070;2022-09-30T07:08:27;92987.25;;;10.01;80.08
30216;BME280;17028;47.642;8.070;2022-09-30T07:13:31;92986.94;;;10.08;79.94
30216;BME280;17028;47.642;8.070;2022-09-30T07:18:33;92984.31;;;10.05;79.49
30216;BME280;17028;47.642;8.070;2022-09-30T07:23:34;92988.47;;;10.09;79.46
30216;BME280;17028;47.642;8.070;2022-09-30T07:28:36;92994.16;;;10.15;79.29
30216;BME280;17028;47.642;8.070;2022-09-30T07:33:39;92998.31;;;10.19;78.95
30216;BME280;17028;47.642;8.070;2022-09-30T07:38:41;92994.59;;;10.23;78.78
30216;BME280;17028;47.642;8.070;2022-09-30T07:43:44;92999.53;;;10.28;78.62
30216;BME280;17028;47.642;8.070;2022-09-30T07:48:46;93000.59;;;10.30;78.14
30216;BME280;17028;47.642;8.070;2022-09-30T07:53:52;93009.53;;;10.34;77.57
30216;BME280;17028;47.642;8.070;2022-09-30T07:58:58;93016.97;;;10.38;77.08
30216;BME280;17028;47.642;8.070;2022-09-30T08:04:02;93018.03;;;10.40;76.31
30216;BME280;17028;47.642;8.070;2022-09-30T08:09:03;93018.47;;;10.48;76.45
30216;BME280;17028;47.642;8.070;2022-09-30T08:14:04;93031.28;;;10.55;75.87
30216;BME280;17028;47.642;8.070;2022-09-30T08:19:05;93041.31;;;10.61;75.50
30216;BME280;17028;47.642;8.070;2022-09-30T08:24:07;93055.19;;;10.71;75.02
30216;BME280;17028;47.642;8.070;2022-09-30T08:29:09;93059.84;;;10.64;75.42
30216;BME280;17028;47.642;8.070;2022-09-30T08:34:14;93068.38;;;10.61;74.96
30216;BME280;17028;47.642;8.070;2022-09-30T08:39:15;93084.78;;;10.68;74.13
30216;BME280;17028;47.642;8.070;2022-09-30T08:44:37;93090.78;;;10.76;73.97
30216;BME280;17028;47.642;8.070;2022-09-30T08:49:56;93105.41;;;10.85;74.29
30216;BME280;17028;47.642;8.070;2022-09-30T08:54:59;93106.78;;;10.90;75.18
30216;BME280;17028;47.642;8.070;2022-09-30T09:00:03;93106.19;;;10.86;75.97
30216;BME280;17028;47.642;8.070;2022-09-30T09:05:15;93106.25;;;11.01;75.52
30216;BME280;17028;47.642;8.070;2022-09-30T09:10:43;93120.81;;;11.05;76.10
30216;BME280;17028;47.642;8.070;2022-09-30T09:20:57;93127.13;;;10.81;77.95
30216;BME280;17028;47.642;8.070;2022-09-30T09:25:59;93125.13;;;10.82;77.20
30216;BME280;17028;47.642;8.070;2022-09-30T09:31:02;93119.47;;;10.91;76.85
30216;BME280;17028;47.642;8.070;2022-09-30T09:46:45;93121.56;;;11.06;80.04
30216;BME280;17028;47.642;8.070;2022-09-30T09:57:14;93126.72;;;10.98;79.62
30216;BME280;17028;47.642;8.070;2022-09-30T10:02:29;93134.31;;;11.22;80.87
30216;BME280;17028;47.642;8.070;2022-09-30T10:07:32;93141.31;;;11.41;80.56
30216;BME280;17028;47.642;8.070;2022-09-30T10:12:34;93140.06;;;11.42;79.76
30216;BME280;17028;47.642;8.070;2022-09-30T10:17:36;93147.22;;;11.58;77.05
30216;BME280;17028;47.642;8.070;2022-09-30T10:22:37;93153.31;;;11.86;76.52
30216;BME280;17028;47.642;8.070;2022-09-30T10:27:58;93155.69;;;12.18;75.93
30216;BME280;17028;47.642;8.070;2022-09-30T10:33:00;93154.22;;;12.23;73.20
30216;BME280;17028;47.642;8.070;2022-09-30T10:38:03;93154.59;;;12.45;73.83
30216;BME280;17028;47.642;8.070;2022-09-30T10:43:05;93168.56;;;12.60;73.86
30216;BME280;17028;47.642;8.070;2022-09-30T10:48:16;93169.38;;;12.46;70.96
30216;BME280;17028;47.642;8.070;2022-09-30T10:53:27;93173.31;;;12.39;69.93
30216;BME280;17028;47.642;8.070;2022-09-30T10:58:39;93179.75;;;12.45;70.26
30216;BME280;17028;47.642;8.070;2022-09-30T11:04:00;93177.47;;;12.44;69.68
30216;BME280;17028;47.642;8.070;2022-09-30T11:09:25;93193.94;;;12.27;68.49
30216;BME280;17028;47.642;8.070;2022-09-30T11:15:07;93190.66;;;12.28;68.99
30216;BME280;17028;47.642;8.070;2022-09-30T11:20:42;93190.56;;;12.23;73.37
30216;BME280;17028;47.642;8.070;2022-09-30T11:31:36;93190.03;;;11.94;76.79
30216;BME280;17028;47.642;8.070;2022-09-30T11:58:49;93200.06;;;11.86;78.22
30216;BME280;17028;47.642;8.070;2022-09-30T12:04:03;93205.72;;;11.92;77.59
30216;BME280;17028;47.642;8.070;2022-09-30T12:09:21;93197.84;;;11.90;76.84
30216;BME280;17028;47.642;8.070;2022-09-30T12:14:34;93198.69;;;11.81;76.70
30216;BME280;17028;47.642;8.070;2022-09-30T12:19:40;93200.97;;;11.83;76.36
30216;BME280;17028;47.642;8.070;2022-09-30T12:24:44;93195.81;;;11.91;75.65
30216;BME280;17028;47.642;8.070;2022-09-30T12:29:59;93195.09;;;12.05;73.63
30216;BME280;17028;47.642;8.070;2022-09-30T12:50:59;93213.41;;;12.51;71.40
30216;BME280;17028;47.642;8.070;2022-09-30T12:56:07;93207.63;;;12.55;69.69
30216;BME280;17028;47.642;8.070;2022-09-30T13:06:16;93209.34;;;12.52;69.63
30216;BME280;17028;47.642;8.070;2022-09-30T13:11:33;93208.28;;;12.49;70.25
30216;BME280;17028;47.642;8.070;2022-09-30T13:32:36;93221.03;;;12.50;66.62
30216;BME280;17028;47.642;8.070;2022-09-30T13:37:38;93228.06;;;12.61;66.19
30216;BME280;17028;47.642;8.070;2022-09-30T13:42:45;93230.28;;;12.72;65.84
30216;BME280;17028;47.642;8.070;2022-09-30T13:48:03;93234.22;;;12.80;65.84
30216;BME280;17028;47.642;8.070;2022-09-30T13:53:34;93235.16;;;12.92;65.98
30216;BME280;17028;47.642;8.070;2022-09-30T13:58:50;93218.69;;;12.94;65.42
30216;BME280;17028;47.642;8.070;2022-09-30T14:04:27;93226.53;;;13.10;65.87
30216;BME280;17028;47.642;8.070;2022-09-30T14:09:47;93237.91;;;13.22;66.02
30216;BME280;17028;47.642;8.070;2022-09-30T14:15:54;93226.59;;;13.31;65.88
30216;BME280;17028;47.642;8.070;2022-09-30T14:20:45;93217.31;;;13.40;66.16
30216;BME280;17028;47.642;8.070;2022-09-30T14:30:59;93238.53;;;13.46;65.54
30216;BME280;17028;47.642;8.070;2022-09-30T14:36:13;93248.13;;;13.40;65.34
30216;BME280;17028;47.642;8.070;2022-09-30T14:41:18;93238.38;;;13.35;65.19
30216;BME280;17028;47.642;8.070;2022-09-30T14:46:36;93249.56;;;13.35;65.05
30216;BME280;17028;47.642;8.070;2022-09-30T14:51:41;93250.16;;;13.39;65.78
30216;BME280;17028;47.642;8.070;2022-09-30T14:56:43;93247.06;;;13.37;67.06
30216;BME280;17028;47.642;8.070;2022-09-30T15:01:45;93254.38;;;13.34;67.51
30216;BME280;17028;47.642;8.070;2022-09-30T15:06:49;93246.09;;;13.40;68.05
30216;BME280;17028;47.642;8.070;2022-09-30T15:11:51;93241.34;;;13.46;67.92
30216;BME280;17028;47.642;8.070;2022-09-30T15:16:54;93238.53;;;13.46;67.45
30216;BME280;17028;47.642;8.070;2022-09-30T15:21:57;93243.31;;;13.40;66.96
30216;BME280;17028;47.642;8.070;2022-09-30T15:27:03;93254.38;;;13.34;66.51
30216;BME280;17028;47.642;8.070;2022-09-30T15:32:13;93263.84;;;13.37;67.01
30216;BME280;17028;47.642;8.070;2022-09-30T15:37:21;93267.72;;;13.40;67.28
30216;BME280;17028;47.642;8.070;2022-09-30T15:42:40;93266.66;;;13.37;67.17
30216;BME280;17028;47.642;8.070;2022-09-30T15:58:31;93277.56;;;13.35;67.97
30216;BME280;17028;47.642;8.070;2022-09-30T16:03:33;93284.13;;;13.32;68.11
30216;BME280;17028;47.642;8.070;2022-09-30T16:08:58;93285.66;;;13.33;68.43
30216;BME280;17028;47.642;8.070;2022-09-30T16:14:01;93291.00;;;13.31;68.59
30216;BME280;17028;47.642;8.070;2022-09-30T16:19:03;93280.38;;;13.35;68.87
30216;BME280;17028;47.642;8.070;2022-09-30T16:29:29;93281.91;;;13.36;68.84
30216;BME280;17028;47.642;8.070;2022-09-30T16:34:34;93298.25;;;13.38;69.06
30216;BME280;17028;47.642;8.070;2022-09-30T16:39:37;93292.66;;;13.38;68.73
30216;BME280;17028;47.642;8.070;2022-09-30T16:44:38;93306.44;;;13.41;68.59
30216;BME280;17028;47.642;8.070;2022-09-30T16:49:39;93313.88;;;13.44;68.62
30216;BME280;17028;47.642;8.070;2022-09-30T16:54:42;93320.72;;;13.43;68.37
30216;BME280;17028;47.642;8.070;2022-09-30T16:59:43;93323.59;;;13.34;68.75
30216;BME280;17028;47.642;8.070;2022-09-30T17:04:44;93325.28;;;13.26;68.95
30216;BME280;17028;47.642;8.070;2022-09-30T17:09:46;93332.03;;;13.19;69.39
30216;BME280;17028;47.642;8.070;2022-09-30T17:14:47;93332.91;;;13.10;70.21
30216;BME280;17028;47.642;8.070;2022-09-30T17:19:48;93338.69;;;12.92;71.49
30216;BME280;17028;47.642;8.070;2022-09-30T17:24:49;93336.28;;;12.84;71.65
30216;BME280;17028;47.642;8.070;2022-09-30T17:29:52;93331.94;;;12.68;72.47
30216;BME280;17028;47.642;8.070;2022-09-30T17:34:53;93347.06;;;12.62;73.04
30216;BME280;17028;47.642;8.070;2022-09-30T17:39:55;93349.66;;;12.65;73.17
30216;BME280;17028;47.642;8.070;2022-09-30T17:44:56;93351.63;;;12.74;72.86
30216;BME280;17028;47.642;8.070;2022-09-30T17:49:57;93357.13;;;12.83;72.74
30216;BME280;17028;47.642;8.070;2022-09-30T17:54:59;93363.88;;;12.92;72.34
30216;BME280;17028;47.642;8.070;2022-09-30T18:00:00;93353.84;;;13.00;72.10
30216;BME280;17028;47.642;8.070;2022-09-30T18:05:01;93366.97;;;13.09;72.10
30216;BME280;17028;47.642;8.070;2022-09-30T18:10:03;93371.19;;;13.04;71.95
30216;BME280;17028;47.642;8.070;2022-09-30T18:15:05;93384.94;;;13.02;72.02
30216;BME280;17028;47.642;8.070;2022-09-30T18:20:07;93378.34;;;13.05;72.04
30216;BME280;17028;47.642;8.070;2022-09-30T18:25:08;93380.19;;;13.08;71.66
30216;BME280;17028;47.642;8.070;2022-09-30T18:30:21;93378.66;;;13.07;71.24
30216;BME280;17028;47.642;8.070;2022-09-30T18:35:23;93384.25;;;13.07;71.08
30216;BME280;17028;47.642;8.070;2022-09-30T18:40:26;93384.72;;;12.91;70.41
30216;BME280;17028;47.642;8.070;2022-09-30T18:45:29;93376.97;;;12.70;70.30
30216;BME280;17028;47.642;8.070;2022-09-30T18:50:31;93387.91;;;12.44;70.51
30216;BME280;17028;47.642;8.070;2022-09-30T18:55:37;93392.94;;;12.16;71.11
30216;BME280;17028;47.642;8.070;2022-09-30T19:00:38;93398.81;;;11.84;71.84
30216;BME280;17028;47.642;8.070;2022-09-30T19:05:39;93413.72;;;11.57;72.07
30216;BME280;17028;47.642;8.070;2022-09-30T19:10:41;93414.03;;;11.50;72.38
30216;BME280;17028;47.642;8.070;2022-09-30T19:15:42;93411.47;;;11.37;72.43
30216;BME280;17028;47.642;8.070;2022-09-30T19:20:43;93414.88;;;11.32;73.01
30216;BME280;17028;47.642;8.070;2022-09-30T19:25:44;93412.63;;;11.12;73.80
30216;BME280;17028;47.642;8.070;2022-09-30T19:30:45;93412.78;;;10.99;74.56
30216;BME280;17028;47.642;8.070;2022-09-30T19:35:46;93413.75;;;10.86;75.24
30216;BME280;17028;47.642;8.070;2022-09-30T19:40:54;93413.91;;;10.74;75.90
30216;BME280;17028;47.642;8.070;2022-09-30T19:46:00;93407.25;;;10.62;76.49
30216;BME280;17028;47.642;8.070;2022-09-30T19:51:05;93406.97;;;10.50;76.51
30216;BME280;17028;47.642;8.070;2022-09-30T20:01:15;93399.47;;;10.29;77.05
30216;BME280;17028;47.642;8.070;2022-09-30T20:06:17;93398.72;;;10.19;77.20
30216;BME280;17028;47.642;8.070;2022-09-30T20:11:20;93395.28;;;10.06;77.53
30216;BME280;17028;47.642;8.070;2022-09-30T20:16:21;93401.94;;;9.99;77.69
30216;BME280;17028;47.642;8.070;2022-09-30T20:21:23;93391.72;;;9.96;77.78
30216;BME280;17028;47.642;8.070;2022-09-30T20:26:24;93396.06;;;10.06;77.21
30216;BME280;17028;47.642;8.070;2022-09-30T20:31:26;93409.38;;;10.02;77.03
30216;BME280;17028;47.642;8.070;2022-09-30T20:36:28;93412.25;;;9.89;77.31
30216;BME280;17028;47.642;8.070;2022-09-30T20:41:32;93405.28;;;9.75;77.45
30216;BME280;17028;47.642;8.070;2022-09-30T20:46:35;93411.16;;;9.68;77.79
30216;BME280;17028;47.642;8.070;2022-09-30T20:51:36;93413.13;;;9.58;78.29
30216;BME280;17028;47.642;8.070;2022-09-30T20:56:37;93410.63;;;9.51;78.60
30216;BME280;17028;47.642;8.070;2022-09-30T21:01:38;93418.81;;;9.45;78.93
30216;BME280;17028;47.642;8.070;2022-09-30T21:06:39;93427.41;;;9.38;79.72
30216;BME280;17028;47.642;8.070;2022-09-30T21:11:40;93434.75;;;9.23;80.22
30216;BME280;17028;47.642;8.070;2022-09-30T21:16:42;93452.75;;;9.31;79.76
30216;BME280;17028;47.642;8.070;2022-09-30T21:21:43;93461.78;;;9.44;78.88
30216;BME280;17028;47.642;8.070;2022-09-30T21:26:44;93478.31;;;9.48;78.53
30216;BME280;17028;47.642;8.070;2022-09-30T21:31:45;93483.75;;;9.51;78.06
30216;BME280;17028;47.642;8.070;2022-09-30T21:36:46;93477.47;;;9.60;77.61
30216;BME280;17028;47.642;8.070;2022-09-30T21:41:48;93493.28;;;9.73;77.27
30216;BME280;17028;47.642;8.070;2022-09-30T21:46:50;93498.59;;;9.80;76.53
30216;BME280;17028;47.642;8.070;2022-09-30T21:51:51;93500.31;;;9.86;76.05
30216;BME280;17028;47.642;8.070;2022-09-30T21:56:55;93495.03;;;9.89;75.63
30216;BME280;17028;47.642;8.070;2022-09-30T22:01:56;93510.06;;;9.91;75.20
30216;BME280;17028;47.642;8.070;2022-09-30T22:06:57;93504.63;;;9.88;74.98
30216;BME280;17028;47.642;8.070;2022-09-30T22:11:58;93507.25;;;9.82;74.75
30216;BME280;17028;47.642;8.070;2022-09-30T22:17:08;93502.59;;;9.79;75.10
30216;BME280;17028;47.642;8.070;2022-09-30T22:22:10;93501.97;;;9.75;75.17
30216;BME280;17028;47.642;8.070;2022-09-30T22:27:11;93505.19;;;9.73;75.37
30216;BME280;17028;47.642;8.070;2022-09-30T22:32:12;93503.91;;;9.65;75.94
30216;BME280;17028;47.642;8.070;2022-09-30T22:37:13;93504.06;;;9.61;76.52
30216;BME280;17028;47.642;8.070;2022-09-30T22:42:33;93502.66;;;9.57;77.08
30216;BME280;17028;47.642;8.070;2022-09-30T22:47:35;93520.09;;;9.57;77.61
30216;BME280;17028;47.642;8.070;2022-09-30T22:52:36;93516.91;;;9.59;77.91
30216;BME280;17028;47.642;8.070;2022-09-30T22:57:37;93510.41;;;9.62;78.13
30216;BME280;17028;47.642;8.070;2022-09-30T23:02:38;93513.06;;;9.65;78.15
30216;BME280;17028;47.642;8.070;2022-09-30T23:07:39;93515.84;;;9.65;78.30
30216;BME280;17028;47.642;8.070;2022-09-30T23:12:40;93522.94;;;9.66;78.51
30216;BME280;17028;47.642;8.070;2022-09-30T23:17:41;93520.50;;;9.68;78.68
30216;BME280;17028;47.642;8.070;2022-09-30T23:22:42;93534.88;;;9.67;78.76
30216;BME280;17028;47.642;8.070;2022-09-30T23:27:47;93530.53;;;9.66;78.69
30216;BME280;17028;47.642;8.070;2022-09-30T23:32:48;93527.41;;;9.64;79.15
30216;BME280;17028;47.642;8.070;2022-09-30T23:37:49;93539.34;;;9.64;78.99
30216;BME280;17028;47.642;8.070;2022-09-30T23:42:52;93539.22;;;9.68;78.74
30216;BME280;17028;47.642;8.070;2022-09-30T23:47:54;93533.94;;;9.70;78.39
30216;BME280;17028;47.642;8.070;2022-09-30T23:52:56;93536.84;;;9.66;78.30
30216;BME280;17028;47.642;8.070;2022-09-30T23:57:58;93539.34;;;9.64;78.27
